CCI9 weather

Public forecast

Using degrees Celsius for public forecast. Weather courtesy of forecast.io.

Closest aviation weather report (METAR) to Cortes Island (Hansen Airfield) Airport

Report is more than 6 hours old.

Closest report is Campbell River Airport, 11.8 nm (21.9 km) WSW. Retrieved 2020/08/12 04:00 UTC (7 hours ago):

CYBL 120400Z 30007KT 30SM FEW065 SCT075 SCT220 15/06 A2990 RMK SC2AC1CI1 CI TR LAST STFD OBS/NEXT 111300 UTC SLP128 DENSITY ALT 500FT

Closest aviation forecast (TAF) to Cortes Island (Hansen Airfield) Airport

Forecast is more than 6 hours old.

Closest forecast is Campbell River Airport, 11.8 nm (21.9 km) WSW. Retrieved 2020-08-12 01:00 UTC (10 hours ago):

TAF CYBL 120038Z 1201/1204 33008KT P6SM SCT050 SCT220 RMK NXT FCST WILL BE ISSUED AT 121445Z